Баландино

Карта отелей и гостиниц, располагающихся рядом с аэропортом Баландино :

Баландино
Челябинск
Челябинская область 55° 18' 20.7612" N, 61° 30' 12.5388" E
Код аэродрома ИКАО
USCC
Код аэродрома RU
УСЦЦ
Координаты
N55.30577° E061.50348°
Превышение над уровнем моря
234
Основная полоса
09/27
Курс магнитный
090,3/270,3
Длина основной ВПП
3204
Ширина основной ВПП
60
Покрытие основной ВПП
Твёрдое
Освещение ВПП
Постоянное
Тип: 
Аэродром
Класс аэродрома: 
Международный
Принадлежность: 
ГА
Статус: 
Действующий
Сайт: 
www.aeroport-74.ru
Страна: 
Россия
Регион: 
Челябинская область
Город: 
Челябинск
Дополнительная информация: 
Оператор: ОАО «Челябинское авиапредприятие». Нкр.=(400)м.
Погода: 

Авиационная погода в Челябинске

Регион: 
Погода METAR: 
USCC 262030Z 14002MPS CAVOK M28/M31 Q1021 R09/000060 NOSIG RMK QFE745
Время наблюдения
2021-02-26T20:30:00Z
Температура C
-28.0
Точка росы
-31.0
Направление ветра
140
Скорость ветра (узлы)
4
Метео видимость
6.21
Явления погоды
Условия полета
VFR
Аэропорт подробнее: 

Найти трансфер

С помощью этой формы Вы можете найти трансфер из аэропорта Баландино в город, аэропорт или вокзал:

Карта места

Javascript is required to view this map.

Погода в аэропортах:

Авиационная погода в Алматы

Регион: 
Погода METAR: 
UAAA 262030Z 26002MPS 3000 BR FU SCT100 BKN200 M13/M17 Q1026 R23R/CLRD65 R23L/91//60 NOSIG
Время наблюдения
2021-02-26T20:30:00Z
Температура C
-13.0
Точка росы
-17.0
Направление ветра
260
Скорость ветра (узлы)
4
Метео видимость
1.86
Явления погоды
BR FU
Условия полета
IFR
Аэропорт подробнее: 

Авиационная погода в Актобе

Регион: 
Погода METAR: 
UATT 262030Z 14007MPS 7000 -SN DRSN BKN048 M15/M18 Q1016 R12/820255 NOSIG RMK QFE743/0990
Время наблюдения
2021-02-26T20:30:00Z
Температура C
-15.0
Точка росы
-18.0
Направление ветра
140
Скорость ветра (узлы)
14
Метео видимость
4.35
Явления погоды
-SN DRSN
Условия полета
MVFR
Аэропорт подробнее: 

Авиационная погода в Архангельске

Регион: 
Погода METAR: 
ULAA 262030Z 16002MPS 110V210 5000 -SHSN BKN007CB BKN023 M11/M14 Q1004 R08/490538 NOSIG RMK QFE752/1002
Время наблюдения
2021-02-26T20:30:00Z
Температура C
-11.0
Точка росы
-14.0
Направление ветра
160
Скорость ветра (узлы)
4
Метео видимость
3.11
Явления погоды
-SHSN
Условия полета
IFR
Аэропорт подробнее: 

Авиационная погода в Астрахани

Регион: 
Погода METAR: 
URWA 262030Z 22004MPS 1300 1100NW R27/P2000 BR OVC002 01/01 Q1017 R27/520360 TEMPO 0300 FG RMK QBB080 OBST OBSC QFE765/1020
Время наблюдения
2021-02-26T20:30:00Z
Температура C
1.0
Точка росы
1.0
Направление ветра
220
Скорость ветра (узлы)
8
Метео видимость
0.81
Явления погоды
BR
Условия полета
LIFR
Аэропорт подробнее: